sensor_id;sensor_type;location;lat;lon;timestamp;temperature;humidity
13458;DHT22;6801;53.018;11.560;2022-08-04T00:00:33;26.00;47.40
13458;DHT22;6801;53.018;11.560;2022-08-04T00:03:10;26.00;47.70
13458;DHT22;6801;53.018;11.560;2022-08-04T00:05:51;26.00;47.90
13458;DHT22;6801;53.018;11.560;2022-08-04T00:08:30;26.00;48.00
13458;DHT22;6801;53.018;11.560;2022-08-04T00:11:00;25.90;48.00
13458;DHT22;6801;53.018;11.560;2022-08-04T00:13:33;25.90;48.10
13458;DHT22;6801;53.018;11.560;2022-08-04T00:16:06;25.90;48.30
13458;DHT22;6801;53.018;11.560;2022-08-04T00:18:38;25.80;48.30
13458;DHT22;6801;53.018;11.560;2022-08-04T00:21:06;25.70;48.30
13458;DHT22;6801;53.018;11.560;2022-08-04T00:23:33;25.70;48.30
13458;DHT22;6801;53.018;11.560;2022-08-04T00:26:01;25.60;48.30
13458;DHT22;6801;53.018;11.560;2022-08-04T00:28:29;25.60;48.40
13458;DHT22;6801;53.018;11.560;2022-08-04T00:30:56;25.50;48.60
13458;DHT22;6801;53.018;11.560;2022-08-04T00:33:25;25.50;48.60
13458;DHT22;6801;53.018;11.560;2022-08-04T00:35:52;25.50;48.70
13458;DHT22;6801;53.018;11.560;2022-08-04T00:38:20;25.50;48.80
13458;DHT22;6801;53.018;11.560;2022-08-04T00:40:52;25.50;48.90
13458;DHT22;6801;53.018;11.560;2022-08-04T00:43:29;25.40;49.10
13458;DHT22;6801;53.018;11.560;2022-08-04T00:46:26;25.40;49.10
13458;DHT22;6801;53.018;11.560;2022-08-04T00:49:23;25.40;49.30
13458;DHT22;6801;53.018;11.560;2022-08-04T00:52:00;25.30;49.40
13458;DHT22;6801;53.018;11.560;2022-08-04T00:54:45;25.30;49.60
13458;DHT22;6801;53.018;11.560;2022-08-04T00:57:46;25.20;49.70
13458;DHT22;6801;53.018;11.560;2022-08-04T01:00:16;25.20;49.60
13458;DHT22;6801;53.018;11.560;2022-08-04T01:02:54;25.10;49.70
13458;DHT22;6801;53.018;11.560;2022-08-04T01:05:34;25.10;50.00
13458;DHT22;6801;53.018;11.560;2022-08-04T01:08:28;25.10;50.50
13458;DHT22;6801;53.018;11.560;2022-08-04T01:11:02;25.00;50.40
13458;DHT22;6801;53.018;11.560;2022-08-04T01:16:47;24.90;50.40
13458;DHT22;6801;53.018;11.560;2022-08-04T01:19:38;24.90;50.60
13458;DHT22;6801;53.018;11.560;2022-08-04T01:22:36;24.80;50.50
13458;DHT22;6801;53.018;11.560;2022-08-04T01:25:28;24.70;50.90
13458;DHT22;6801;53.018;11.560;2022-08-04T01:28:14;24.60;51.00
13458;DHT22;6801;53.018;11.560;2022-08-04T01:30:56;24.60;51.20
13458;DHT22;6801;53.018;11.560;2022-08-04T01:33:28;24.50;51.20
13458;DHT22;6801;53.018;11.560;2022-08-04T01:35:56;24.50;51.10
13458;DHT22;6801;53.018;11.560;2022-08-04T01:38:28;24.50;51.10
13458;DHT22;6801;53.018;11.560;2022-08-04T01:41:01;24.50;51.20
13458;DHT22;6801;53.018;11.560;2022-08-04T01:43:29;24.50;51.10
13458;DHT22;6801;53.018;11.560;2022-08-04T01:46:00;24.40;51.00
13458;DHT22;6801;53.018;11.560;2022-08-04T01:48:28;24.40;51.10
13458;DHT22;6801;53.018;11.560;2022-08-04T01:50:57;24.40;51.10
13458;DHT22;6801;53.018;11.560;2022-08-04T01:53:29;24.30;51.10
13458;DHT22;6801;53.018;11.560;2022-08-04T01:55:56;24.30;51.10
13458;DHT22;6801;53.018;11.560;2022-08-04T01:58:24;24.30;51.10
13458;DHT22;6801;53.018;11.560;2022-08-04T02:00:57;24.20;51.10
13458;DHT22;6801;53.018;11.560;2022-08-04T02:03:27;24.20;51.20
13458;DHT22;6801;53.018;11.560;2022-08-04T02:05:59;24.20;51.20
13458;DHT22;6801;53.018;11.560;2022-08-04T02:08:36;24.10;51.30
13458;DHT22;6801;53.018;11.560;2022-08-04T02:11:14;24.10;51.40
13458;DHT22;6801;53.018;11.560;2022-08-04T02:13:51;24.00;51.40
13458;DHT22;6801;53.018;11.560;2022-08-04T02:16:29;24.10;51.50
13458;DHT22;6801;53.018;11.560;2022-08-04T02:19:03;24.00;51.50
13458;DHT22;6801;53.018;11.560;2022-08-04T02:21:31;24.00;51.40
13458;DHT22;6801;53.018;11.560;2022-08-04T02:24:03;24.00;51.50
13458;DHT22;6801;53.018;11.560;2022-08-04T02:26:33;23.90;51.60
13458;DHT22;6801;53.018;11.560;2022-08-04T02:29:06;23.90;51.70
13458;DHT22;6801;53.018;11.560;2022-08-04T02:31:44;23.90;51.80
13458;DHT22;6801;53.018;11.560;2022-08-04T02:34:17;23.90;51.90
13458;DHT22;6801;53.018;11.560;2022-08-04T02:36:47;23.80;52.00
13458;DHT22;6801;53.018;11.560;2022-08-04T02:39:18;23.80;52.00
13458;DHT22;6801;53.018;11.560;2022-08-04T02:41:46;23.80;52.00
13458;DHT22;6801;53.018;11.560;2022-08-04T02:44:13;23.70;52.00
13458;DHT22;6801;53.018;11.560;2022-08-04T02:46:43;23.70;51.90
13458;DHT22;6801;53.018;11.560;2022-08-04T02:49:13;23.70;52.00
13458;DHT22;6801;53.018;11.560;2022-08-04T02:51:41;23.60;52.10
13458;DHT22;6801;53.018;11.560;2022-08-04T02:54:09;23.60;52.10
13458;DHT22;6801;53.018;11.560;2022-08-04T02:56:37;23.50;52.10
13458;DHT22;6801;53.018;11.560;2022-08-04T02:59:08;23.50;52.20
13458;DHT22;6801;53.018;11.560;2022-08-04T03:01:36;23.50;52.30
13458;DHT22;6801;53.018;11.560;2022-08-04T03:04:13;23.50;52.40
13458;DHT22;6801;53.018;11.560;2022-08-04T03:16:02;23.40;52.60
13458;DHT22;6801;53.018;11.560;2022-08-04T03:25:20;23.30;53.00
13458;DHT22;6801;53.018;11.560;2022-08-04T03:28:16;23.20;53.10
13458;DHT22;6801;53.018;11.560;2022-08-04T03:31:10;23.20;53.20
13458;DHT22;6801;53.018;11.560;2022-08-04T03:33:58;23.10;53.20
13458;DHT22;6801;53.018;11.560;2022-08-04T03:37:02;23.10;53.50
13458;DHT22;6801;53.018;11.560;2022-08-04T03:46:04;23.00;53.40
13458;DHT22;6801;53.018;11.560;2022-08-04T03:51:49;23.00;53.50
13458;DHT22;6801;53.018;11.560;2022-08-04T03:54:57;23.00;53.60
13458;DHT22;6801;53.018;11.560;2022-08-04T03:57:47;23.00;53.80
13458;DHT22;6801;53.018;11.560;2022-08-04T04:00:17;22.90;54.00
13458;DHT22;6801;53.018;11.560;2022-08-04T04:06:08;22.90;54.40
13458;DHT22;6801;53.018;11.560;2022-08-04T04:08:52;22.90;54.20
13458;DHT22;6801;53.018;11.560;2022-08-04T04:12:06;22.80;54.30
13458;DHT22;6801;53.018;11.560;2022-08-04T04:14:48;22.80;54.20
13458;DHT22;6801;53.018;11.560;2022-08-04T04:17:29;22.70;54.30
13458;DHT22;6801;53.018;11.560;2022-08-04T04:23:08;22.70;54.60
13458;DHT22;6801;53.018;11.560;2022-08-04T04:25:46;22.70;54.60
13458;DHT22;6801;53.018;11.560;2022-08-04T04:28:49;22.70;54.70
13458;DHT22;6801;53.018;11.560;2022-08-04T04:31:41;22.70;54.60
13458;DHT22;6801;53.018;11.560;2022-08-04T04:34:23;22.70;54.90
13458;DHT22;6801;53.018;11.560;2022-08-04T04:37:02;22.70;55.00
13458;DHT22;6801;53.018;11.560;2022-08-04T04:39:42;22.60;55.00
13458;DHT22;6801;53.018;11.560;2022-08-04T04:42:34;22.60;55.20
13458;DHT22;6801;53.018;11.560;2022-08-04T04:45:14;22.60;55.30
13458;DHT22;6801;53.018;11.560;2022-08-04T04:47:53;22.60;55.70
13458;DHT22;6801;53.018;11.560;2022-08-04T04:50:27;22.70;56.10
13458;DHT22;6801;53.018;11.560;2022-08-04T04:53:03;22.70;56.40
13458;DHT22;6801;53.018;11.560;2022-08-04T04:55:37;22.70;56.40
13458;DHT22;6801;53.018;11.560;2022-08-04T04:58:10;22.80;56.20
13458;DHT22;6801;53.018;11.560;2022-08-04T05:00:52;22.80;56.00
13458;DHT22;6801;53.018;11.560;2022-08-04T05:03:35;22.90;55.60
13458;DHT22;6801;53.018;11.560;2022-08-04T05:06:16;22.90;55.60
13458;DHT22;6801;53.018;11.560;2022-08-04T05:09:06;23.00;56.00
13458;DHT22;6801;53.018;11.560;2022-08-04T05:11:54;23.00;56.10
13458;DHT22;6801;53.018;11.560;2022-08-04T05:14:29;23.10;56.00
13458;DHT22;6801;53.018;11.560;2022-08-04T05:17:03;23.10;55.80
13458;DHT22;6801;53.018;11.560;2022-08-04T05:19:41;23.20;56.00
13458;DHT22;6801;53.018;11.560;2022-08-04T05:22:16;23.30;55.90
13458;DHT22;6801;53.018;11.560;2022-08-04T05:24:47;23.30;55.60
13458;DHT22;6801;53.018;11.560;2022-08-04T05:27:18;23.30;55.40
13458;DHT22;6801;53.018;11.560;2022-08-04T05:29:53;23.40;55.80
13458;DHT22;6801;53.018;11.560;2022-08-04T05:32:27;23.50;55.70
13458;DHT22;6801;53.018;11.560;2022-08-04T05:34:57;23.50;55.70
13458;DHT22;6801;53.018;11.560;2022-08-04T05:37:26;23.50;55.50
13458;DHT22;6801;53.018;11.560;2022-08-04T05:39:57;23.50;55.50
13458;DHT22;6801;53.018;11.560;2022-08-04T05:42:26;23.50;55.70
13458;DHT22;6801;53.018;11.560;2022-08-04T05:44:54;23.60;55.70
13458;DHT22;6801;53.018;11.560;2022-08-04T05:47:23;23.60;55.90
13458;DHT22;6801;53.018;11.560;2022-08-04T05:49:50;23.70;55.60
13458;DHT22;6801;53.018;11.560;2022-08-04T05:52:18;23.70;55.60
13458;DHT22;6801;53.018;11.560;2022-08-04T05:54:47;23.70;55.90
13458;DHT22;6801;53.018;11.560;2022-08-04T05:57:14;23.80;56.20
13458;DHT22;6801;53.018;11.560;2022-08-04T05:59:43;23.80;56.20
13458;DHT22;6801;53.018;11.560;2022-08-04T06:02:13;23.90;56.70
13458;DHT22;6801;53.018;11.560;2022-08-04T06:04:43;23.90;56.80
13458;DHT22;6801;53.018;11.560;2022-08-04T06:07:12;24.00;56.30
13458;DHT22;6801;53.018;11.560;2022-08-04T06:09:39;24.00;56.60
13458;DHT22;6801;53.018;11.560;2022-08-04T06:12:10;24.10;56.70
13458;DHT22;6801;53.018;11.560;2022-08-04T06:14:39;24.10;57.20
13458;DHT22;6801;53.018;11.560;2022-08-04T06:17:08;24.20;57.10
13458;DHT22;6801;53.018;11.560;2022-08-04T06:19:39;24.20;57.50
13458;DHT22;6801;53.018;11.560;2022-08-04T06:22:11;24.30;57.20
13458;DHT22;6801;53.018;11.560;2022-08-04T06:24:40;24.30;57.10
13458;DHT22;6801;53.018;11.560;2022-08-04T06:27:08;24.40;57.00
13458;DHT22;6801;53.018;11.560;2022-08-04T06:29:36;24.40;56.90
13458;DHT22;6801;53.018;11.560;2022-08-04T06:32:06;24.50;57.00
13458;DHT22;6801;53.018;11.560;2022-08-04T06:34:51;24.50;56.90
13458;DHT22;6801;53.018;11.560;2022-08-04T06:37:20;24.60;57.00
13458;DHT22;6801;53.018;11.560;2022-08-04T06:39:49;24.70;56.20
13458;DHT22;6801;53.018;11.560;2022-08-04T06:42:19;24.70;56.10
13458;DHT22;6801;53.018;11.560;2022-08-04T06:44:49;24.90;56.40
13458;DHT22;6801;53.018;11.560;2022-08-04T06:47:17;24.90;56.50
13458;DHT22;6801;53.018;11.560;2022-08-04T06:49:48;25.00;56.50
13458;DHT22;6801;53.018;11.560;2022-08-04T06:52:16;25.10;56.50
13458;DHT22;6801;53.018;11.560;2022-08-04T06:54:45;25.20;56.10
13458;DHT22;6801;53.018;11.560;2022-08-04T06:57:14;25.30;55.90
13458;DHT22;6801;53.018;11.560;2022-08-04T06:59:43;25.40;55.80
13458;DHT22;6801;53.018;11.560;2022-08-04T07:02:14;25.50;55.60
13458;DHT22;6801;53.018;11.560;2022-08-04T07:04:42;25.60;55.70
13458;DHT22;6801;53.018;11.560;2022-08-04T07:07:10;25.70;55.10
13458;DHT22;6801;53.018;11.560;2022-08-04T07:09:38;25.90;54.90
13458;DHT22;6801;53.018;11.560;2022-08-04T07:12:08;26.00;54.40
13458;DHT22;6801;53.018;11.560;2022-08-04T07:14:35;26.10;54.20
13458;DHT22;6801;53.018;11.560;2022-08-04T07:17:03;26.20;53.90
13458;DHT22;6801;53.018;11.560;2022-08-04T07:19:31;26.30;53.50
13458;DHT22;6801;53.018;11.560;2022-08-04T07:21:59;26.40;53.10
13458;DHT22;6801;53.018;11.560;2022-08-04T07:24:30;26.60;52.90
13458;DHT22;6801;53.018;11.560;2022-08-04T07:26:57;26.70;52.40
13458;DHT22;6801;53.018;11.560;2022-08-04T07:29:25;26.90;51.90
13458;DHT22;6801;53.018;11.560;2022-08-04T07:31:54;27.00;51.20
13458;DHT22;6801;53.018;11.560;2022-08-04T07:34:22;27.20;50.70
13458;DHT22;6801;53.018;11.560;2022-08-04T07:36:52;27.30;50.20
13458;DHT22;6801;53.018;11.560;2022-08-04T07:39:19;27.50;49.80
13458;DHT22;6801;53.018;11.560;2022-08-04T07:41:46;27.60;49.30
13458;DHT22;6801;53.018;11.560;2022-08-04T07:44:14;27.80;48.30
13458;DHT22;6801;53.018;11.560;2022-08-04T07:46:44;28.00;48.10
13458;DHT22;6801;53.018;11.560;2022-08-04T07:49:11;28.00;47.50
13458;DHT22;6801;53.018;11.560;2022-08-04T07:51:39;28.20;47.20
13458;DHT22;6801;53.018;11.560;2022-08-04T07:54:07;28.30;46.80
13458;DHT22;6801;53.018;11.560;2022-08-04T07:56:36;28.40;46.10
13458;DHT22;6801;53.018;11.560;2022-08-04T07:59:04;28.50;46.30
13458;DHT22;6801;53.018;11.560;2022-08-04T08:01:33;28.60;45.20
13458;DHT22;6801;53.018;11.560;2022-08-04T08:04:03;28.70;44.40
13458;DHT22;6801;53.018;11.560;2022-08-04T08:06:31;28.80;43.70
13458;DHT22;6801;53.018;11.560;2022-08-04T08:08:58;28.90;43.20
13458;DHT22;6801;53.018;11.560;2022-08-04T08:11:25;29.00;43.00
13458;DHT22;6801;53.018;11.560;2022-08-04T08:13:53;29.20;42.70
13458;DHT22;6801;53.018;11.560;2022-08-04T08:16:20;29.30;42.20
13458;DHT22;6801;53.018;11.560;2022-08-04T08:18:48;29.40;42.30
13458;DHT22;6801;53.018;11.560;2022-08-04T08:21:18;29.50;42.00
13458;DHT22;6801;53.018;11.560;2022-08-04T08:23:45;29.60;41.40
13458;DHT22;6801;53.018;11.560;2022-08-04T08:26:13;29.70;41.40
13458;DHT22;6801;53.018;11.560;2022-08-04T08:28:40;29.90;41.10
13458;DHT22;6801;53.018;11.560;2022-08-04T08:31:07;30.00;40.80
13458;DHT22;6801;53.018;11.560;2022-08-04T08:33:34;30.10;40.10
13458;DHT22;6801;53.018;11.560;2022-08-04T08:36:05;30.30;39.80
13458;DHT22;6801;53.018;11.560;2022-08-04T08:38:47;30.40;39.30
13458;DHT22;6801;53.018;11.560;2022-08-04T08:42:10;30.50;38.90
13458;DHT22;6801;53.018;11.560;2022-08-04T08:45:06;30.70;39.10
13458;DHT22;6801;53.018;11.560;2022-08-04T08:47:46;30.90;38.70
13458;DHT22;6801;53.018;11.560;2022-08-04T08:53:52;31.20;37.20
13458;DHT22;6801;53.018;11.560;2022-08-04T08:56:32;31.30;37.00
13458;DHT22;6801;53.018;11.560;2022-08-04T08:59:26;31.40;35.50
13458;DHT22;6801;53.018;11.560;2022-08-04T09:02:14;31.50;35.20
13458;DHT22;6801;53.018;11.560;2022-08-04T09:05:11;31.60;35.10
13458;DHT22;6801;53.018;11.560;2022-08-04T09:07:56;31.80;35.30
13458;DHT22;6801;53.018;11.560;2022-08-04T09:10:35;31.90;34.50
13458;DHT22;6801;53.018;11.560;2022-08-04T09:13:16;32.00;33.30
13458;DHT22;6801;53.018;11.560;2022-08-04T09:15:51;32.10;32.40
13458;DHT22;6801;53.018;11.560;2022-08-04T09:18:24;32.20;32.90
13458;DHT22;6801;53.018;11.560;2022-08-04T09:20:58;32.30;32.80
13458;DHT22;6801;53.018;11.560;2022-08-04T09:23:33;32.40;32.30
13458;DHT22;6801;53.018;11.560;2022-08-04T09:26:11;32.50;32.50
13458;DHT22;6801;53.018;11.560;2022-08-04T09:28:47;32.70;32.20
13458;DHT22;6801;53.018;11.560;2022-08-04T09:31:21;32.80;30.90
13458;DHT22;6801;53.018;11.560;2022-08-04T09:33:56;32.90;31.20
13458;DHT22;6801;53.018;11.560;2022-08-04T09:36:31;33.00;31.10
13458;DHT22;6801;53.018;11.560;2022-08-04T09:39:09;33.10;31.20
13458;DHT22;6801;53.018;11.560;2022-08-04T09:41:47;33.30;31.40
13458;DHT22;6801;53.018;11.560;2022-08-04T09:44:25;33.40;31.60
13458;DHT22;6801;53.018;11.560;2022-08-04T09:47:02;33.50;31.50
13458;DHT22;6801;53.018;11.560;2022-08-04T09:49:37;33.60;31.10
13458;DHT22;6801;53.018;11.560;2022-08-04T09:52:10;33.80;30.00
13458;DHT22;6801;53.018;11.560;2022-08-04T09:54:48;33.90;30.00
13458;DHT22;6801;53.018;11.560;2022-08-04T09:57:27;34.00;29.80
13458;DHT22;6801;53.018;11.560;2022-08-04T10:00:03;34.10;29.80
13458;DHT22;6801;53.018;11.560;2022-08-04T10:02:39;34.30;29.80
13458;DHT22;6801;53.018;11.560;2022-08-04T10:05:11;34.40;28.80
13458;DHT22;6801;53.018;11.560;2022-08-04T10:07:56;34.40;29.40
13458;DHT22;6801;53.018;11.560;2022-08-04T10:10:33;34.50;29.50
13458;DHT22;6801;53.018;11.560;2022-08-04T10:13:20;34.70;28.50
13458;DHT22;6801;53.018;11.560;2022-08-04T10:15:59;34.70;28.60
13458;DHT22;6801;53.018;11.560;2022-08-04T10:18:42;34.80;28.70
13458;DHT22;6801;53.018;11.560;2022-08-04T10:21:17;34.90;28.60
13458;DHT22;6801;53.018;11.560;2022-08-04T10:24:16;35.00;28.60
13458;DHT22;6801;53.018;11.560;2022-08-04T10:26:51;35.10;28.70
13458;DHT22;6801;53.018;11.560;2022-08-04T10:29:26;35.20;28.30
13458;DHT22;6801;53.018;11.560;2022-08-04T10:31:58;35.40;28.10
13458;DHT22;6801;53.018;11.560;2022-08-04T10:34:28;35.50;28.10
13458;DHT22;6801;53.018;11.560;2022-08-04T10:37:01;35.60;27.40
13458;DHT22;6801;53.018;11.560;2022-08-04T10:39:36;35.70;27.20
13458;DHT22;6801;53.018;11.560;2022-08-04T10:42:18;35.70;27.00
13458;DHT22;6801;53.018;11.560;2022-08-04T10:44:57;35.90;27.10
13458;DHT22;6801;53.018;11.560;2022-08-04T10:47:37;35.90;27.00
13458;DHT22;6801;53.018;11.560;2022-08-04T10:50:08;35.90;26.70
13458;DHT22;6801;53.018;11.560;2022-08-04T10:52:43;36.00;26.40
13458;DHT22;6801;53.018;11.560;2022-08-04T10:55:14;36.20;27.20
13458;DHT22;6801;53.018;11.560;2022-08-04T10:57:45;36.30;26.10
13458;DHT22;6801;53.018;11.560;2022-08-04T11:00:24;36.40;25.90
13458;DHT22;6801;53.018;11.560;2022-08-04T11:02:57;36.40;26.00
13458;DHT22;6801;53.018;11.560;2022-08-04T11:05:29;36.40;25.50
13458;DHT22;6801;53.018;11.560;2022-08-04T11:08:02;36.50;25.50
13458;DHT22;6801;53.018;11.560;2022-08-04T11:10:34;36.60;24.80
13458;DHT22;6801;53.018;11.560;2022-08-04T11:13:07;36.70;25.00
13458;DHT22;6801;53.018;11.560;2022-08-04T11:15:40;36.80;24.80
13458;DHT22;6801;53.018;11.560;2022-08-04T11:18:14;36.80;24.50
13458;DHT22;6801;53.018;11.560;2022-08-04T11:20:47;36.90;24.40
13458;DHT22;6801;53.018;11.560;2022-08-04T11:23:16;37.00;24.00
13458;DHT22;6801;53.018;11.560;2022-08-04T11:25:49;37.00;24.10
13458;DHT22;6801;53.018;11.560;2022-08-04T11:28:22;36.90;23.70
13458;DHT22;6801;53.018;11.560;2022-08-04T11:30:58;36.90;24.20
13458;DHT22;6801;53.018;11.560;2022-08-04T11:33:34;36.90;24.10
13458;DHT22;6801;53.018;11.560;2022-08-04T11:36:07;36.90;24.20
13458;DHT22;6801;53.018;11.560;2022-08-04T11:38:38;37.00;24.90
13458;DHT22;6801;53.018;11.560;2022-08-04T11:41:10;37.00;24.00
13458;DHT22;6801;53.018;11.560;2022-08-04T11:43:43;37.10;25.00
13458;DHT22;6801;53.018;11.560;2022-08-04T11:46:17;37.20;24.50
13458;DHT22;6801;53.018;11.560;2022-08-04T11:48:55;37.30;24.80
13458;DHT22;6801;53.018;11.560;2022-08-04T11:51:26;37.40;24.20
13458;DHT22;6801;53.018;11.560;2022-08-04T11:53:54;37.50;22.80
13458;DHT22;6801;53.018;11.560;2022-08-04T11:56:22;37.50;22.90
13458;DHT22;6801;53.018;11.560;2022-08-04T11:58:49;37.50;23.10
13458;DHT22;6801;53.018;11.560;2022-08-04T12:01:25;37.50;23.60
13458;DHT22;6801;53.018;11.560;2022-08-04T12:04:02;37.60;23.70
13458;DHT22;6801;53.018;11.560;2022-08-04T12:06:38;37.70;24.20
13458;DHT22;6801;53.018;11.560;2022-08-04T12:09:11;37.80;24.00
13458;DHT22;6801;53.018;11.560;2022-08-04T12:11:53;37.90;24.30
13458;DHT22;6801;53.018;11.560;2022-08-04T12:14:27;37.90;23.90
13458;DHT22;6801;53.018;11.560;2022-08-04T12:16:59;38.00;23.40
13458;DHT22;6801;53.018;11.560;2022-08-04T12:19:36;38.10;23.70
13458;DHT22;6801;53.018;11.560;2022-08-04T12:22:09;38.10;24.10
13458;DHT22;6801;53.018;11.560;2022-08-04T12:24:40;38.20;23.90
13458;DHT22;6801;53.018;11.560;2022-08-04T12:27:12;38.30;22.80
13458;DHT22;6801;53.018;11.560;2022-08-04T12:29:41;38.30;23.10
13458;DHT22;6801;53.018;11.560;2022-08-04T12:32:21;38.40;23.10
13458;DHT22;6801;53.018;11.560;2022-08-04T12:34:57;38.30;22.70
13458;DHT22;6801;53.018;11.560;2022-08-04T12:37:37;38.20;23.00
13458;DHT22;6801;53.018;11.560;2022-08-04T12:40:12;38.20;23.40
13458;DHT22;6801;53.018;11.560;2022-08-04T12:42:44;38.20;23.80
13458;DHT22;6801;53.018;11.560;2022-08-04T12:45:14;38.20;23.60
13458;DHT22;6801;53.018;11.560;2022-08-04T12:47:44;38.20;23.60
13458;DHT22;6801;53.018;11.560;2022-08-04T12:50:13;38.30;23.30
13458;DHT22;6801;53.018;11.560;2022-08-04T12:52:46;38.40;23.70
13458;DHT22;6801;53.018;11.560;2022-08-04T12:55:14;38.50;23.60
13458;DHT22;6801;53.018;11.560;2022-08-04T12:57:42;38.40;22.50
13458;DHT22;6801;53.018;11.560;2022-08-04T13:00:10;38.50;23.00
13458;DHT22;6801;53.018;11.560;2022-08-04T13:02:41;38.60;22.80
13458;DHT22;6801;53.018;11.560;2022-08-04T13:05:10;38.60;22.40
13458;DHT22;6801;53.018;11.560;2022-08-04T13:07:42;38.60;23.10
13458;DHT22;6801;53.018;11.560;2022-08-04T13:10:12;38.60;22.70
13458;DHT22;6801;53.018;11.560;2022-08-04T13:12:41;38.80;22.10
13458;DHT22;6801;53.018;11.560;2022-08-04T13:15:14;38.70;22.10
13458;DHT22;6801;53.018;11.560;2022-08-04T13:17:48;38.60;22.10
13458;DHT22;6801;53.018;11.560;2022-08-04T13:20:24;38.70;22.50
13458;DHT22;6801;53.018;11.560;2022-08-04T13:22:56;38.70;22.50
13458;DHT22;6801;53.018;11.560;2022-08-04T13:25:27;38.80;23.20
13458;DHT22;6801;53.018;11.560;2022-08-04T13:27:56;38.90;22.40
13458;DHT22;6801;53.018;11.560;2022-08-04T13:30:25;38.90;21.70
13458;DHT22;6801;53.018;11.560;2022-08-04T13:32:54;38.90;21.80
13458;DHT22;6801;53.018;11.560;2022-08-04T13:35:25;38.90;22.60
13458;DHT22;6801;53.018;11.560;2022-08-04T13:37:54;38.90;22.50
13458;DHT22;6801;53.018;11.560;2022-08-04T13:40:24;39.00;22.20
13458;DHT22;6801;53.018;11.560;2022-08-04T13:42:52;38.90;22.10
13458;DHT22;6801;53.018;11.560;2022-08-04T13:45:21;39.00;22.40
13458;DHT22;6801;53.018;11.560;2022-08-04T13:47:50;39.00;21.50
13458;DHT22;6801;53.018;11.560;2022-08-04T13:50:25;39.00;21.00
13458;DHT22;6801;53.018;11.560;2022-08-04T13:52:56;38.90;21.10
13458;DHT22;6801;53.018;11.560;2022-08-04T13:55:26;39.00;21.10
13458;DHT22;6801;53.018;11.560;2022-08-04T13:57:57;38.90;21.10
13458;DHT22;6801;53.018;11.560;2022-08-04T14:00:34;38.70;21.20
13458;DHT22;6801;53.018;11.560;2022-08-04T14:03:06;38.70;21.60
13458;DHT22;6801;53.018;11.560;2022-08-04T14:05:35;38.60;21.40
13458;DHT22;6801;53.018;11.560;2022-08-04T14:08:07;38.60;21.90
13458;DHT22;6801;53.018;11.560;2022-08-04T14:10:35;38.50;21.60
13458;DHT22;6801;53.018;11.560;2022-08-04T14:13:03;38.40;21.70
13458;DHT22;6801;53.018;11.560;2022-08-04T14:15:33;38.40;21.80
13458;DHT22;6801;53.018;11.560;2022-08-04T14:18:19;38.30;21.70
13458;DHT22;6801;53.018;11.560;2022-08-04T14:21:03;38.20;21.90
13458;DHT22;6801;53.018;11.560;2022-08-04T14:23:47;38.10;22.10
13458;DHT22;6801;53.018;11.560;2022-08-04T14:26:17;38.10;22.20
13458;DHT22;6801;53.018;11.560;2022-08-04T14:28:45;38.10;22.40
13458;DHT22;6801;53.018;11.560;2022-08-04T14:31:16;38.20;23.00
13458;DHT22;6801;53.018;11.560;2022-08-04T14:33:46;38.30;22.80
13458;DHT22;6801;53.018;11.560;2022-08-04T14:36:15;38.30;22.30
13458;DHT22;6801;53.018;11.560;2022-08-04T14:38:48;38.30;22.50
13458;DHT22;6801;53.018;11.560;2022-08-04T14:41:17;38.30;22.40
13458;DHT22;6801;53.018;11.560;2022-08-04T14:43:45;38.40;22.50
13458;DHT22;6801;53.018;11.560;2022-08-04T14:46:13;38.40;22.70
13458;DHT22;6801;53.018;11.560;2022-08-04T14:48:59;38.40;22.30
13458;DHT22;6801;53.018;11.560;2022-08-04T14:51:33;38.40;22.20
13458;DHT22;6801;53.018;11.560;2022-08-04T14:54:00;38.40;22.20
13458;DHT22;6801;53.018;11.560;2022-08-04T14:56:27;38.40;22.40
13458;DHT22;6801;53.018;11.560;2022-08-04T14:58:58;38.30;22.20
13458;DHT22;6801;53.018;11.560;2022-08-04T15:01:26;38.30;22.20
13458;DHT22;6801;53.018;11.560;2022-08-04T15:03:54;38.40;22.00
13458;DHT22;6801;53.018;11.560;2022-08-04T15:06:22;38.40;22.10
13458;DHT22;6801;53.018;11.560;2022-08-04T15:08:54;38.40;22.30
13458;DHT22;6801;53.018;11.560;2022-08-04T15:11:21;38.40;22.40
13458;DHT22;6801;53.018;11.560;2022-08-04T15:13:48;38.40;22.90
13458;DHT22;6801;53.018;11.560;2022-08-04T15:16:15;38.40;22.70
13458;DHT22;6801;53.018;11.560;2022-08-04T15:18:42;38.40;22.50
13458;DHT22;6801;53.018;11.560;2022-08-04T15:21:09;38.40;22.00
13458;DHT22;6801;53.018;11.560;2022-08-04T15:23:38;38.40;22.10
13458;DHT22;6801;53.018;11.560;2022-08-04T15:26:09;38.40;22.20
13458;DHT22;6801;53.018;11.560;2022-08-04T15:28:39;38.20;22.50
13458;DHT22;6801;53.018;11.560;2022-08-04T15:31:08;38.20;22.70
13458;DHT22;6801;53.018;11.560;2022-08-04T15:33:38;38.20;22.50
13458;DHT22;6801;53.018;11.560;2022-08-04T15:36:12;38.20;22.60
13458;DHT22;6801;53.018;11.560;2022-08-04T15:38:49;38.20;22.70
13458;DHT22;6801;53.018;11.560;2022-08-04T15:41:25;38.10;22.70
13458;DHT22;6801;53.018;11.560;2022-08-04T15:44:15;38.00;22.90
13458;DHT22;6801;53.018;11.560;2022-08-04T15:47:09;38.00;22.70
13458;DHT22;6801;53.018;11.560;2022-08-04T15:49:37;38.00;23.00
13458;DHT22;6801;53.018;11.560;2022-08-04T15:52:07;37.90;22.90
13458;DHT22;6801;53.018;11.560;2022-08-04T15:54:34;37.90;23.10
13458;DHT22;6801;53.018;11.560;2022-08-04T15:57:04;37.90;23.10
13458;DHT22;6801;53.018;11.560;2022-08-04T15:59:55;37.90;23.20
13458;DHT22;6801;53.018;11.560;2022-08-04T16:05:28;38.00;23.00
13458;DHT22;6801;53.018;11.560;2022-08-04T16:07:58;38.00;23.30
13458;DHT22;6801;53.018;11.560;2022-08-04T16:10:35;38.00;23.40
13458;DHT22;6801;53.018;11.560;2022-08-04T16:13:06;37.90;23.00
13458;DHT22;6801;53.018;11.560;2022-08-04T16:15:39;38.00;22.90
13458;DHT22;6801;53.018;11.560;2022-08-04T16:18:07;38.00;23.20
13458;DHT22;6801;53.018;11.560;2022-08-04T16:20:35;37.90;23.20
13458;DHT22;6801;53.018;11.560;2022-08-04T16:23:19;37.80;23.20
13458;DHT22;6801;53.018;11.560;2022-08-04T16:25:54;37.80;23.40
13458;DHT22;6801;53.018;11.560;2022-08-04T16:28:40;37.70;23.50
13458;DHT22;6801;53.018;11.560;2022-08-04T16:31:09;37.60;23.40
13458;DHT22;6801;53.018;11.560;2022-08-04T16:33:37;37.60;23.50
13458;DHT22;6801;53.018;11.560;2022-08-04T16:36:07;37.60;23.50
13458;DHT22;6801;53.018;11.560;2022-08-04T16:39:00;37.50;23.50
13458;DHT22;6801;53.018;11.560;2022-08-04T16:41:38;37.40;23.70
13458;DHT22;6801;53.018;11.560;2022-08-04T16:44:29;37.40;23.70
13458;DHT22;6801;53.018;11.560;2022-08-04T16:46:57;37.30;23.80
13458;DHT22;6801;53.018;11.560;2022-08-04T16:49:26;37.20;24.00
13458;DHT22;6801;53.018;11.560;2022-08-04T16:51:54;37.20;24.00
13458;DHT22;6801;53.018;11.560;2022-08-04T16:54:28;37.10;24.10